sensor_id;sensor_type;location;lat;lon;timestamp;P1;durP1;ratioP1;P2;durP2;ratioP2
10491;SDS011;5293;51.464;-2.566;2023-09-19T00:02:00;11.30;;;2.60;;
10491;SDS011;5293;51.464;-2.566;2023-09-19T00:04:32;13.43;;;3.00;;
10491;SDS011;5293;51.464;-2.566;2023-09-19T00:06:58;11.67;;;2.70;;
10491;SDS011;5293;51.464;-2.566;2023-09-19T00:09:24;11.07;;;3.47;;
10491;SDS011;5293;51.464;-2.566;2023-09-19T00:11:53;12.03;;;3.77;;
10491;SDS011;5293;51.464;-2.566;2023-09-19T00:14:18;18.83;;;3.67;;
10491;SDS011;5293;51.464;-2.566;2023-09-19T00:16:44;9.67;;;3.43;;
10491;SDS011;5293;51.464;-2.566;2023-09-19T00:19:11;11.83;;;2.40;;
10491;SDS011;5293;51.464;-2.566;2023-09-19T00:21:37;18.50;;;3.63;;
10491;SDS011;5293;51.464;-2.566;2023-09-19T00:24:03;11.17;;;2.50;;
10491;SDS011;5293;51.464;-2.566;2023-09-19T00:26:31;19.73;;;3.40;;
10491;SDS011;5293;51.464;-2.566;2023-09-19T00:28:57;16.87;;;3.63;;
10491;SDS011;5293;51.464;-2.566;2023-09-19T00:31:29;12.87;;;2.80;;
10491;SDS011;5293;51.464;-2.566;2023-09-19T00:33:55;17.00;;;3.50;;
10491;SDS011;5293;51.464;-2.566;2023-09-19T00:36:27;10.27;;;2.90;;
10491;SDS011;5293;51.464;-2.566;2023-09-19T00:38:54;15.87;;;4.07;;
10491;SDS011;5293;51.464;-2.566;2023-09-19T00:41:20;12.07;;;2.83;;
10491;SDS011;5293;51.464;-2.566;2023-09-19T00:43:46;14.80;;;3.43;;
10491;SDS011;5293;51.464;-2.566;2023-09-19T00:46:12;16.10;;;2.70;;
10491;SDS011;5293;51.464;-2.566;2023-09-19T00:48:42;13.63;;;3.10;;
10491;SDS011;5293;51.464;-2.566;2023-09-19T00:51:11;13.03;;;3.17;;
10491;SDS011;5293;51.464;-2.566;2023-09-19T00:53:39;13.73;;;2.90;;
10491;SDS011;5293;51.464;-2.566;2023-09-19T00:56:07;10.17;;;3.00;;
10491;SDS011;5293;51.464;-2.566;2023-09-19T00:58:33;13.70;;;2.83;;
10491;SDS011;5293;51.464;-2.566;2023-09-19T01:01:00;15.67;;;3.63;;
10491;SDS011;5293;51.464;-2.566;2023-09-19T01:03:27;14.60;;;2.67;;
10491;SDS011;5293;51.464;-2.566;2023-09-19T01:05:53;10.43;;;2.37;;
10491;SDS011;5293;51.464;-2.566;2023-09-19T01:08:19;8.17;;;2.47;;
10491;SDS011;5293;51.464;-2.566;2023-09-19T01:11:06;11.37;;;2.70;;
10491;SDS011;5293;51.464;-2.566;2023-09-19T01:16:42;17.00;;;3.13;;
10491;SDS011;5293;51.464;-2.566;2023-09-19T01:25:18;15.63;;;2.40;;
10491;SDS011;5293;51.464;-2.566;2023-09-19T01:30:40;12.67;;;2.97;;
10491;SDS011;5293;51.464;-2.566;2023-09-19T01:33:09;17.07;;;2.80;;
10491;SDS011;5293;51.464;-2.566;2023-09-19T01:35:39;12.70;;;2.60;;
10491;SDS011;5293;51.464;-2.566;2023-09-19T01:38:08;9.43;;;2.33;;
10491;SDS011;5293;51.464;-2.566;2023-09-19T01:40:40;10.03;;;2.67;;
10491;SDS011;5293;51.464;-2.566;2023-09-19T01:43:11;13.97;;;3.10;;
10491;SDS011;5293;51.464;-2.566;2023-09-19T01:48:58;8.33;;;2.40;;
10491;SDS011;5293;51.464;-2.566;2023-09-19T01:51:42;8.57;;;2.13;;
10491;SDS011;5293;51.464;-2.566;2023-09-19T01:54:33;18.13;;;3.23;;
10491;SDS011;5293;51.464;-2.566;2023-09-19T01:57:05;12.77;;;2.97;;
10491;SDS011;5293;51.464;-2.566;2023-09-19T01:59:43;13.27;;;2.63;;
10491;SDS011;5293;51.464;-2.566;2023-09-19T02:02:15;11.20;;;3.07;;
10491;SDS011;5293;51.464;-2.566;2023-09-19T02:04:42;9.57;;;2.87;;
10491;SDS011;5293;51.464;-2.566;2023-09-19T02:07:08;13.77;;;3.57;;
10491;SDS011;5293;51.464;-2.566;2023-09-19T02:09:34;17.43;;;3.23;;
10491;SDS011;5293;51.464;-2.566;2023-09-19T02:12:04;14.27;;;2.57;;
10491;SDS011;5293;51.464;-2.566;2023-09-19T02:14:30;13.27;;;2.70;;
10491;SDS011;5293;51.464;-2.566;2023-09-19T02:16:56;8.53;;;2.03;;
10491;SDS011;5293;51.464;-2.566;2023-09-19T02:19:21;11.43;;;2.60;;
10491;SDS011;5293;51.464;-2.566;2023-09-19T02:21:47;12.63;;;2.63;;
10491;SDS011;5293;51.464;-2.566;2023-09-19T02:24:14;17.57;;;2.10;;
10491;SDS011;5293;51.464;-2.566;2023-09-19T02:26:40;5.53;;;2.40;;
10491;SDS011;5293;51.464;-2.566;2023-09-19T02:29:06;10.17;;;2.20;;
10491;SDS011;5293;51.464;-2.566;2023-09-19T02:31:32;10.23;;;2.50;;
10491;SDS011;5293;51.464;-2.566;2023-09-19T02:33:57;9.63;;;2.20;;
10491;SDS011;5293;51.464;-2.566;2023-09-19T02:36:25;13.63;;;2.70;;
10491;SDS011;5293;51.464;-2.566;2023-09-19T02:38:51;15.27;;;3.03;;
10491;SDS011;5293;51.464;-2.566;2023-09-19T02:41:16;9.47;;;2.07;;
10491;SDS011;5293;51.464;-2.566;2023-09-19T02:43:42;13.83;;;3.83;;
10491;SDS011;5293;51.464;-2.566;2023-09-19T02:46:08;10.43;;;3.57;;
10491;SDS011;5293;51.464;-2.566;2023-09-19T02:48:34;12.17;;;2.27;;
10491;SDS011;5293;51.464;-2.566;2023-09-19T02:51:01;15.67;;;2.23;;
10491;SDS011;5293;51.464;-2.566;2023-09-19T02:53:30;10.40;;;2.20;;
10491;SDS011;5293;51.464;-2.566;2023-09-19T02:55:57;13.20;;;2.40;;
10491;SDS011;5293;51.464;-2.566;2023-09-19T02:58:22;10.30;;;2.10;;
10491;SDS011;5293;51.464;-2.566;2023-09-19T03:00:50;7.33;;;2.00;;
10491;SDS011;5293;51.464;-2.566;2023-09-19T03:03:16;12.87;;;2.70;;
10491;SDS011;5293;51.464;-2.566;2023-09-19T03:05:42;10.10;;;3.03;;
10491;SDS011;5293;51.464;-2.566;2023-09-19T03:08:12;6.70;;;1.73;;
10491;SDS011;5293;51.464;-2.566;2023-09-19T03:10:40;8.63;;;1.77;;
10491;SDS011;5293;51.464;-2.566;2023-09-19T03:13:05;9.80;;;2.43;;
10491;SDS011;5293;51.464;-2.566;2023-09-19T03:15:34;11.27;;;2.40;;
10491;SDS011;5293;51.464;-2.566;2023-09-19T03:18:04;10.23;;;2.17;;
10491;SDS011;5293;51.464;-2.566;2023-09-19T03:20:30;4.83;;;1.67;;
10491;SDS011;5293;51.464;-2.566;2023-09-19T03:22:55;7.47;;;2.03;;
10491;SDS011;5293;51.464;-2.566;2023-09-19T03:25:22;9.13;;;2.23;;
10491;SDS011;5293;51.464;-2.566;2023-09-19T03:27:48;7.67;;;2.10;;
10491;SDS011;5293;51.464;-2.566;2023-09-19T03:30:13;8.60;;;2.50;;
10491;SDS011;5293;51.464;-2.566;2023-09-19T03:32:46;12.50;;;2.37;;
10491;SDS011;5293;51.464;-2.566;2023-09-19T03:35:14;9.20;;;1.90;;
10491;SDS011;5293;51.464;-2.566;2023-09-19T03:37:41;10.27;;;2.43;;
10491;SDS011;5293;51.464;-2.566;2023-09-19T03:40:08;9.53;;;2.20;;
10491;SDS011;5293;51.464;-2.566;2023-09-19T03:42:37;14.13;;;3.00;;
10491;SDS011;5293;51.464;-2.566;2023-09-19T03:45:04;6.63;;;1.63;;
10491;SDS011;5293;51.464;-2.566;2023-09-19T03:47:30;8.03;;;2.17;;
10491;SDS011;5293;51.464;-2.566;2023-09-19T03:49:56;8.37;;;2.30;;
10491;SDS011;5293;51.464;-2.566;2023-09-19T03:52:21;10.00;;;2.07;;
10491;SDS011;5293;51.464;-2.566;2023-09-19T03:54:47;8.27;;;2.23;;
10491;SDS011;5293;51.464;-2.566;2023-09-19T03:57:14;9.90;;;2.00;;
10491;SDS011;5293;51.464;-2.566;2023-09-19T03:59:42;6.63;;;1.57;;
10491;SDS011;5293;51.464;-2.566;2023-09-19T04:02:11;6.43;;;2.03;;
10491;SDS011;5293;51.464;-2.566;2023-09-19T04:04:47;7.03;;;1.80;;
10491;SDS011;5293;51.464;-2.566;2023-09-19T04:07:16;6.10;;;1.73;;
10491;SDS011;5293;51.464;-2.566;2023-09-19T04:09:43;11.37;;;1.90;;
10491;SDS011;5293;51.464;-2.566;2023-09-19T04:12:10;5.90;;;1.73;;
10491;SDS011;5293;51.464;-2.566;2023-09-19T04:14:36;8.43;;;1.47;;
10491;SDS011;5293;51.464;-2.566;2023-09-19T04:17:02;7.13;;;1.93;;
10491;SDS011;5293;51.464;-2.566;2023-09-19T04:19:28;9.23;;;1.70;;
10491;SDS011;5293;51.464;-2.566;2023-09-19T04:21:54;6.20;;;1.60;;
10491;SDS011;5293;51.464;-2.566;2023-09-19T04:24:19;6.53;;;1.80;;
10491;SDS011;5293;51.464;-2.566;2023-09-19T04:26:45;3.80;;;1.30;;
10491;SDS011;5293;51.464;-2.566;2023-09-19T04:29:11;5.43;;;1.10;;
10491;SDS011;5293;51.464;-2.566;2023-09-19T04:31:39;4.27;;;1.40;;
10491;SDS011;5293;51.464;-2.566;2023-09-19T04:34:05;5.70;;;1.93;;
10491;SDS011;5293;51.464;-2.566;2023-09-19T04:36:31;3.23;;;1.40;;
10491;SDS011;5293;51.464;-2.566;2023-09-19T04:38:57;3.80;;;1.03;;
10491;SDS011;5293;51.464;-2.566;2023-09-19T04:41:22;4.33;;;0.97;;
10491;SDS011;5293;51.464;-2.566;2023-09-19T04:43:49;4.97;;;1.50;;
10491;SDS011;5293;51.464;-2.566;2023-09-19T04:46:15;3.60;;;1.20;;
10491;SDS011;5293;51.464;-2.566;2023-09-19T04:48:42;7.87;;;1.47;;
10491;SDS011;5293;51.464;-2.566;2023-09-19T04:51:08;6.03;;;1.47;;
10491;SDS011;5293;51.464;-2.566;2023-09-19T04:53:35;4.90;;;1.67;;
10491;SDS011;5293;51.464;-2.566;2023-09-19T04:56:01;4.00;;;1.00;;
10491;SDS011;5293;51.464;-2.566;2023-09-19T04:58:28;5.57;;;1.50;;
10491;SDS011;5293;51.464;-2.566;2023-09-19T05:00:54;5.10;;;1.30;;
10491;SDS011;5293;51.464;-2.566;2023-09-19T05:03:19;7.17;;;1.63;;
10491;SDS011;5293;51.464;-2.566;2023-09-19T05:05:46;5.23;;;1.23;;
10491;SDS011;5293;51.464;-2.566;2023-09-19T05:08:11;7.47;;;1.37;;
10491;SDS011;5293;51.464;-2.566;2023-09-19T05:10:39;4.83;;;1.50;;
10491;SDS011;5293;51.464;-2.566;2023-09-19T05:13:05;11.43;;;1.63;;
10491;SDS011;5293;51.464;-2.566;2023-09-19T05:15:33;5.30;;;1.60;;
10491;SDS011;5293;51.464;-2.566;2023-09-19T05:18:00;3.07;;;1.10;;
10491;SDS011;5293;51.464;-2.566;2023-09-19T05:20:26;4.90;;;1.30;;
10491;SDS011;5293;51.464;-2.566;2023-09-19T05:22:58;8.13;;;1.47;;
10491;SDS011;5293;51.464;-2.566;2023-09-19T05:25:27;5.03;;;1.40;;
10491;SDS011;5293;51.464;-2.566;2023-09-19T05:27:57;8.53;;;1.30;;
10491;SDS011;5293;51.464;-2.566;2023-09-19T05:30:26;4.97;;;1.47;;
10491;SDS011;5293;51.464;-2.566;2023-09-19T05:32:52;3.97;;;1.30;;
10491;SDS011;5293;51.464;-2.566;2023-09-19T05:35:19;4.80;;;1.13;;
10491;SDS011;5293;51.464;-2.566;2023-09-19T05:37:46;4.20;;;1.23;;
10491;SDS011;5293;51.464;-2.566;2023-09-19T05:40:16;5.43;;;1.23;;
10491;SDS011;5293;51.464;-2.566;2023-09-19T05:42:42;5.23;;;1.40;;
10491;SDS011;5293;51.464;-2.566;2023-09-19T05:45:09;4.33;;;1.50;;
10491;SDS011;5293;51.464;-2.566;2023-09-19T05:47:40;5.43;;;1.50;;
10491;SDS011;5293;51.464;-2.566;2023-09-19T05:50:10;7.07;;;1.70;;
10491;SDS011;5293;51.464;-2.566;2023-09-19T05:52:37;4.23;;;1.57;;
10491;SDS011;5293;51.464;-2.566;2023-09-19T05:55:07;6.83;;;2.90;;
10491;SDS011;5293;51.464;-2.566;2023-09-19T05:57:36;3.67;;;1.60;;
10491;SDS011;5293;51.464;-2.566;2023-09-19T06:00:07;6.30;;;1.93;;
10491;SDS011;5293;51.464;-2.566;2023-09-19T06:02:36;5.47;;;1.77;;
10491;SDS011;5293;51.464;-2.566;2023-09-19T06:05:03;5.33;;;1.70;;
10491;SDS011;5293;51.464;-2.566;2023-09-19T06:07:31;9.57;;;2.07;;
10491;SDS011;5293;51.464;-2.566;2023-09-19T06:10:02;6.50;;;1.90;;
10491;SDS011;5293;51.464;-2.566;2023-09-19T06:12:32;7.63;;;1.80;;
10491;SDS011;5293;51.464;-2.566;2023-09-19T06:14:58;9.07;;;2.17;;
10491;SDS011;5293;51.464;-2.566;2023-09-19T06:17:24;6.07;;;2.23;;
10491;SDS011;5293;51.464;-2.566;2023-09-19T06:19:52;8.30;;;2.53;;
10491;SDS011;5293;51.464;-2.566;2023-09-19T06:22:17;13.37;;;2.47;;
10491;SDS011;5293;51.464;-2.566;2023-09-19T06:24:44;8.33;;;2.60;;
10491;SDS011;5293;51.464;-2.566;2023-09-19T06:27:09;7.53;;;2.40;;
10491;SDS011;5293;51.464;-2.566;2023-09-19T06:29:35;7.17;;;2.40;;
10491;SDS011;5293;51.464;-2.566;2023-09-19T06:32:06;7.53;;;2.33;;
10491;SDS011;5293;51.464;-2.566;2023-09-19T06:34:33;9.03;;;2.47;;
10491;SDS011;5293;51.464;-2.566;2023-09-19T06:36:59;9.23;;;2.50;;
10491;SDS011;5293;51.464;-2.566;2023-09-19T06:39:25;7.33;;;2.67;;
10491;SDS011;5293;51.464;-2.566;2023-09-19T06:41:51;10.20;;;2.73;;
10491;SDS011;5293;51.464;-2.566;2023-09-19T06:44:18;9.10;;;2.47;;
10491;SDS011;5293;51.464;-2.566;2023-09-19T06:46:46;13.00;;;2.63;;
10491;SDS011;5293;51.464;-2.566;2023-09-19T06:49:16;8.30;;;2.53;;
10491;SDS011;5293;51.464;-2.566;2023-09-19T06:51:42;9.83;;;3.00;;
10491;SDS011;5293;51.464;-2.566;2023-09-19T06:54:08;11.37;;;2.60;;
10491;SDS011;5293;51.464;-2.566;2023-09-19T06:56:35;15.63;;;3.20;;
10491;SDS011;5293;51.464;-2.566;2023-09-19T06:59:00;17.20;;;2.93;;
10491;SDS011;5293;51.464;-2.566;2023-09-19T07:01:27;8.90;;;2.90;;
10491;SDS011;5293;51.464;-2.566;2023-09-19T07:03:53;10.57;;;3.43;;
10491;SDS011;5293;51.464;-2.566;2023-09-19T07:06:19;10.67;;;3.13;;
10491;SDS011;5293;51.464;-2.566;2023-09-19T07:08:45;11.83;;;3.60;;
10491;SDS011;5293;51.464;-2.566;2023-09-19T07:11:11;11.80;;;3.17;;
10491;SDS011;5293;51.464;-2.566;2023-09-19T07:13:37;12.97;;;3.60;;
10491;SDS011;5293;51.464;-2.566;2023-09-19T07:16:04;10.97;;;3.33;;
10491;SDS011;5293;51.464;-2.566;2023-09-19T07:18:30;9.50;;;3.67;;
10491;SDS011;5293;51.464;-2.566;2023-09-19T07:20:57;12.93;;;3.20;;
10491;SDS011;5293;51.464;-2.566;2023-09-19T07:23:26;9.10;;;2.97;;
10491;SDS011;5293;51.464;-2.566;2023-09-19T07:25:51;14.53;;;3.73;;
10491;SDS011;5293;51.464;-2.566;2023-09-19T07:28:21;11.13;;;3.40;;
10491;SDS011;5293;51.464;-2.566;2023-09-19T07:30:47;10.40;;;3.30;;
10491;SDS011;5293;51.464;-2.566;2023-09-19T07:33:13;12.33;;;4.00;;
10491;SDS011;5293;51.464;-2.566;2023-09-19T07:35:39;12.17;;;3.80;;
10491;SDS011;5293;51.464;-2.566;2023-09-19T07:38:05;10.40;;;3.00;;
10491;SDS011;5293;51.464;-2.566;2023-09-19T07:40:31;11.43;;;3.50;;
10491;SDS011;5293;51.464;-2.566;2023-09-19T07:42:57;10.83;;;3.77;;
10491;SDS011;5293;51.464;-2.566;2023-09-19T07:45:26;13.17;;;3.83;;
10491;SDS011;5293;51.464;-2.566;2023-09-19T07:48:01;18.87;;;4.20;;
10491;SDS011;5293;51.464;-2.566;2023-09-19T07:50:29;12.00;;;3.83;;
10491;SDS011;5293;51.464;-2.566;2023-09-19T07:52:55;13.53;;;4.27;;
10491;SDS011;5293;51.464;-2.566;2023-09-19T07:55:21;11.13;;;4.17;;
10491;SDS011;5293;51.464;-2.566;2023-09-19T07:57:50;16.57;;;3.57;;
10491;SDS011;5293;51.464;-2.566;2023-09-19T08:00:19;9.23;;;3.60;;
10491;SDS011;5293;51.464;-2.566;2023-09-19T08:02:45;18.10;;;4.20;;
10491;SDS011;5293;51.464;-2.566;2023-09-19T08:05:11;14.90;;;4.57;;
10491;SDS011;5293;51.464;-2.566;2023-09-19T08:07:41;16.57;;;4.80;;
10491;SDS011;5293;51.464;-2.566;2023-09-19T08:10:08;9.13;;;4.33;;
10491;SDS011;5293;51.464;-2.566;2023-09-19T08:12:43;10.50;;;3.70;;
10491;SDS011;5293;51.464;-2.566;2023-09-19T08:15:17;15.63;;;4.72;;
10491;SDS011;5293;51.464;-2.566;2023-09-19T08:17:47;15.33;;;4.70;;
10491;SDS011;5293;51.464;-2.566;2023-09-19T08:20:13;12.97;;;4.40;;
10491;SDS011;5293;51.464;-2.566;2023-09-19T08:22:47;15.60;;;3.73;;
10491;SDS011;5293;51.464;-2.566;2023-09-19T08:25:20;12.27;;;4.00;;
10491;SDS011;5293;51.464;-2.566;2023-09-19T08:27:51;13.87;;;4.37;;
10491;SDS011;5293;51.464;-2.566;2023-09-19T08:30:18;13.40;;;3.60;;
10491;SDS011;5293;51.464;-2.566;2023-09-19T08:32:48;16.70;;;3.90;;
10491;SDS011;5293;51.464;-2.566;2023-09-19T08:35:24;16.67;;;3.90;;
10491;SDS011;5293;51.464;-2.566;2023-09-19T08:37:50;8.60;;;3.30;;
10491;SDS011;5293;51.464;-2.566;2023-09-19T08:40:16;9.63;;;3.23;;
10491;SDS011;5293;51.464;-2.566;2023-09-19T08:42:52;16.33;;;4.50;;
10491;SDS011;5293;51.464;-2.566;2023-09-19T08:45:19;10.47;;;4.13;;
10491;SDS011;5293;51.464;-2.566;2023-09-19T08:50:57;12.57;;;4.00;;
10491;SDS011;5293;51.464;-2.566;2023-09-19T08:53:28;13.50;;;3.67;;
10491;SDS011;5293;51.464;-2.566;2023-09-19T08:56:06;13.27;;;3.33;;
10491;SDS011;5293;51.464;-2.566;2023-09-19T08:58:40;12.93;;;3.23;;
10491;SDS011;5293;51.464;-2.566;2023-09-19T09:01:16;13.13;;;3.50;;
10491;SDS011;5293;51.464;-2.566;2023-09-19T09:03:49;10.60;;;3.43;;
10491;SDS011;5293;51.464;-2.566;2023-09-19T09:06:19;11.83;;;3.77;;
10491;SDS011;5293;51.464;-2.566;2023-09-19T09:08:46;15.17;;;4.03;;
10491;SDS011;5293;51.464;-2.566;2023-09-19T09:11:15;13.93;;;3.87;;
10491;SDS011;5293;51.464;-2.566;2023-09-19T09:13:43;11.23;;;3.67;;
10491;SDS011;5293;51.464;-2.566;2023-09-19T09:16:12;13.17;;;4.33;;
10491;SDS011;5293;51.464;-2.566;2023-09-19T09:18:43;10.17;;;3.23;;
10491;SDS011;5293;51.464;-2.566;2023-09-19T09:21:10;16.13;;;4.17;;
10491;SDS011;5293;51.464;-2.566;2023-09-19T09:23:36;11.53;;;4.27;;
10491;SDS011;5293;51.464;-2.566;2023-09-19T09:26:02;12.20;;;3.07;;
10491;SDS011;5293;51.464;-2.566;2023-09-19T09:28:28;11.27;;;3.47;;
10491;SDS011;5293;51.464;-2.566;2023-09-19T09:30:56;11.53;;;3.30;;
10491;SDS011;5293;51.464;-2.566;2023-09-19T09:33:33;10.50;;;3.07;;
10491;SDS011;5293;51.464;-2.566;2023-09-19T09:35:59;11.30;;;3.07;;
10491;SDS011;5293;51.464;-2.566;2023-09-19T09:38:28;11.30;;;3.10;;
10491;SDS011;5293;51.464;-2.566;2023-09-19T09:40:58;10.07;;;2.67;;
10491;SDS011;5293;51.464;-2.566;2023-09-19T09:43:34;6.27;;;2.20;;
10491;SDS011;5293;51.464;-2.566;2023-09-19T09:46:26;10.97;;;2.97;;
10491;SDS011;5293;51.464;-2.566;2023-09-19T09:51:38;8.73;;;2.00;;
10491;SDS011;5293;51.464;-2.566;2023-09-19T09:54:11;6.47;;;2.40;;
10491;SDS011;5293;51.464;-2.566;2023-09-19T09:56:57;7.43;;;2.27;;
10491;SDS011;5293;51.464;-2.566;2023-09-19T10:02:27;5.63;;;1.73;;
10491;SDS011;5293;51.464;-2.566;2023-09-19T10:05:15;5.87;;;2.13;;
10491;SDS011;5293;51.464;-2.566;2023-09-19T10:07:45;7.07;;;2.03;;
10491;SDS011;5293;51.464;-2.566;2023-09-19T10:10:30;3.70;;;2.00;;
10491;SDS011;5293;51.464;-2.566;2023-09-19T10:13:11;7.90;;;1.93;;
10491;SDS011;5293;51.464;-2.566;2023-09-19T10:15:40;4.83;;;1.80;;
10491;SDS011;5293;51.464;-2.566;2023-09-19T10:18:16;7.20;;;2.23;;
10491;SDS011;5293;51.464;-2.566;2023-09-19T10:20:45;4.43;;;1.70;;
10491;SDS011;5293;51.464;-2.566;2023-09-19T10:23:13;8.67;;;2.03;;
10491;SDS011;5293;51.464;-2.566;2023-09-19T10:25:47;8.07;;;2.33;;
10491;SDS011;5293;51.464;-2.566;2023-09-19T10:28:14;6.17;;;2.37;;
10491;SDS011;5293;51.464;-2.566;2023-09-19T10:30:41;3.43;;;1.73;;
10491;SDS011;5293;51.464;-2.566;2023-09-19T10:33:12;5.47;;;1.90;;
10491;SDS011;5293;51.464;-2.566;2023-09-19T10:35:41;4.13;;;1.23;;
10491;SDS011;5293;51.464;-2.566;2023-09-19T10:38:12;6.73;;;1.50;;
10491;SDS011;5293;51.464;-2.566;2023-09-19T10:40:39;2.83;;;1.47;;
10491;SDS011;5293;51.464;-2.566;2023-09-19T10:43:11;6.33;;;1.67;;
10491;SDS011;5293;51.464;-2.566;2023-09-19T10:45:38;4.87;;;1.67;;
10491;SDS011;5293;51.464;-2.566;2023-09-19T10:48:06;3.90;;;1.50;;
10491;SDS011;5293;51.464;-2.566;2023-09-19T10:50:36;2.97;;;1.60;;
10491;SDS011;5293;51.464;-2.566;2023-09-19T10:53:14;4.00;;;1.33;;
10491;SDS011;5293;51.464;-2.566;2023-09-19T10:55:42;2.77;;;1.53;;
10491;SDS011;5293;51.464;-2.566;2023-09-19T10:58:52;3.93;;;1.20;;
10491;SDS011;5293;51.464;-2.566;2023-09-19T11:01:11;7.07;;;1.30;;
10491;SDS011;5293;51.464;-2.566;2023-09-19T11:03:37;2.87;;;1.00;;
10491;SDS011;5293;51.464;-2.566;2023-09-19T11:20:31;2.50;;;1.07;;
10491;SDS011;5293;51.464;-2.566;2023-09-19T11:30:43;1.83;;;1.00;;
10491;SDS011;5293;51.464;-2.566;2023-09-19T11:46:26;2.20;;;0.80;;
10491;SDS011;5293;51.464;-2.566;2023-09-19T11:48:53;1.47;;;0.70;;
10491;SDS011;5293;51.464;-2.566;2023-09-19T11:51:23;3.07;;;1.00;;
10491;SDS011;5293;51.464;-2.566;2023-09-19T11:54:01;2.50;;;1.10;;
10491;SDS011;5293;51.464;-2.566;2023-09-19T11:56:28;2.00;;;0.87;;
10491;SDS011;5293;51.464;-2.566;2023-09-19T11:58:56;1.13;;;0.90;;
10491;SDS011;5293;51.464;-2.566;2023-09-19T12:01:32;2.53;;;1.13;;
10491;SDS011;5293;51.464;-2.566;2023-09-19T12:03:59;4.73;;;1.50;;
10491;SDS011;5293;51.464;-2.566;2023-09-19T12:06:27;2.33;;;1.00;;
10491;SDS011;5293;51.464;-2.566;2023-09-19T12:09:00;4.13;;;2.07;;
10491;SDS011;5293;51.464;-2.566;2023-09-19T12:11:28;4.77;;;2.00;;
10491;SDS011;5293;51.464;-2.566;2023-09-19T12:13:58;4.07;;;1.17;;
10491;SDS011;5293;51.464;-2.566;2023-09-19T12:16:26;16.57;;;2.33;;
10491;SDS011;5293;51.464;-2.566;2023-09-19T12:18:55;1.50;;;1.37;;
10491;SDS011;5293;51.464;-2.566;2023-09-19T12:21:25;2.53;;;1.00;;
10491;SDS011;5293;51.464;-2.566;2023-09-19T12:26:41;4.17;;;1.10;;
10491;SDS011;5293;51.464;-2.566;2023-09-19T12:29:29;1.83;;;1.20;;
10491;SDS011;5293;51.464;-2.566;2023-09-19T12:31:55;1.97;;;1.10;;
10491;SDS011;5293;51.464;-2.566;2023-09-19T12:34:31;2.13;;;1.20;;
10491;SDS011;5293;51.464;-2.566;2023-09-19T12:39:46;3.67;;;1.50;;
10491;SDS011;5293;51.464;-2.566;2023-09-19T12:42:17;3.03;;;1.30;;
10491;SDS011;5293;51.464;-2.566;2023-09-19T12:44:46;5.67;;;1.60;;
10491;SDS011;5293;51.464;-2.566;2023-09-19T12:47:21;4.00;;;1.20;;
10491;SDS011;5293;51.464;-2.566;2023-09-19T12:52:43;3.40;;;1.27;;
10491;SDS011;5293;51.464;-2.566;2023-09-19T12:55:24;5.57;;;1.40;;
10491;SDS011;5293;51.464;-2.566;2023-09-19T12:57:58;2.50;;;1.30;;
10491;SDS011;5293;51.464;-2.566;2023-09-19T13:00:34;2.77;;;1.10;;
10491;SDS011;5293;51.464;-2.566;2023-09-19T13:03:24;6.37;;;1.27;;
10491;SDS011;5293;51.464;-2.566;2023-09-19T13:05:57;4.50;;;1.50;;
10491;SDS011;5293;51.464;-2.566;2023-09-19T13:08:39;2.17;;;1.23;;
10491;SDS011;5293;51.464;-2.566;2023-09-19T13:13:42;4.13;;;1.90;;
10491;SDS011;5293;51.464;-2.566;2023-09-19T13:16:14;5.20;;;1.97;;
10491;SDS011;5293;51.464;-2.566;2023-09-19T13:18:48;11.83;;;2.20;;
10491;SDS011;5293;51.464;-2.566;2023-09-19T13:21:16;9.27;;;2.73;;
10491;SDS011;5293;51.464;-2.566;2023-09-19T13:23:52;10.97;;;2.50;;
10491;SDS011;5293;51.464;-2.566;2023-09-19T13:26:24;10.57;;;2.60;;
10491;SDS011;5293;51.464;-2.566;2023-09-19T13:28:53;11.43;;;3.00;;
10491;SDS011;5293;51.464;-2.566;2023-09-19T13:31:19;15.13;;;2.97;;
10491;SDS011;5293;51.464;-2.566;2023-09-19T13:33:46;9.33;;;2.67;;
10491;SDS011;5293;51.464;-2.566;2023-09-19T13:36:13;13.83;;;2.63;;
10491;SDS011;5293;51.464;-2.566;2023-09-19T13:38:39;11.67;;;2.57;;
10491;SDS011;5293;51.464;-2.566;2023-09-19T13:41:07;11.60;;;2.63;;
10491;SDS011;5293;51.464;-2.566;2023-09-19T13:43:35;11.17;;;2.33;;
10491;SDS011;5293;51.464;-2.566;2023-09-19T13:46:01;8.87;;;2.77;;
10491;SDS011;5293;51.464;-2.566;2023-09-19T13:48:27;7.90;;;2.07;;
10491;SDS011;5293;51.464;-2.566;2023-09-19T13:50:55;10.00;;;3.40;;
10491;SDS011;5293;51.464;-2.566;2023-09-19T13:53:21;10.23;;;2.47;;
10491;SDS011;5293;51.464;-2.566;2023-09-19T13:55:47;7.07;;;2.13;;
10491;SDS011;5293;51.464;-2.566;2023-09-19T13:58:16;10.43;;;2.73;;
10491;SDS011;5293;51.464;-2.566;2023-09-19T14:00:41;10.53;;;2.63;;
10491;SDS011;5293;51.464;-2.566;2023-09-19T14:03:07;9.70;;;2.30;;
10491;SDS011;5293;51.464;-2.566;2023-09-19T14:05:35;7.83;;;2.47;;
10491;SDS011;5293;51.464;-2.566;2023-09-19T14:08:02;8.70;;;2.27;;
10491;SDS011;5293;51.464;-2.566;2023-09-19T14:10:28;9.27;;;2.73;;
10491;SDS011;5293;51.464;-2.566;2023-09-19T14:12:56;8.77;;;2.30;;
10491;SDS011;5293;51.464;-2.566;2023-09-19T14:15:25;7.20;;;2.23;;
10491;SDS011;5293;51.464;-2.566;2023-09-19T14:17:58;12.43;;;2.30;;
10491;SDS011;5293;51.464;-2.566;2023-09-19T14:20:25;16.33;;;3.10;;
10491;SDS011;5293;51.464;-2.566;2023-09-19T14:22:55;7.83;;;2.13;;
10491;SDS011;5293;51.464;-2.566;2023-09-19T14:25:23;9.67;;;2.43;;
10491;SDS011;5293;51.464;-2.566;2023-09-19T14:27:51;6.90;;;1.83;;
10491;SDS011;5293;51.464;-2.566;2023-09-19T14:30:17;11.47;;;2.63;;
10491;SDS011;5293;51.464;-2.566;2023-09-19T14:32:43;10.37;;;2.67;;
10491;SDS011;5293;51.464;-2.566;2023-09-19T14:35:09;6.53;;;1.90;;
10491;SDS011;5293;51.464;-2.566;2023-09-19T14:37:35;13.37;;;2.13;;
10491;SDS011;5293;51.464;-2.566;2023-09-19T14:40:03;6.40;;;2.00;;
10491;SDS011;5293;51.464;-2.566;2023-09-19T14:42:34;7.43;;;2.17;;
10491;SDS011;5293;51.464;-2.566;2023-09-19T14:45:02;3.17;;;1.23;;
10491;SDS011;5293;51.464;-2.566;2023-09-19T14:47:29;3.90;;;1.40;;
10491;SDS011;5293;51.464;-2.566;2023-09-19T14:49:56;2.43;;;1.13;;
10491;SDS011;5293;51.464;-2.566;2023-09-19T14:52:23;6.03;;;1.57;;
10491;SDS011;5293;51.464;-2.566;2023-09-19T14:54:52;4.47;;;1.23;;
10491;SDS011;5293;51.464;-2.566;2023-09-19T14:57:18;3.17;;;1.30;;
10491;SDS011;5293;51.464;-2.566;2023-09-19T14:59:44;2.20;;;1.70;;
10491;SDS011;5293;51.464;-2.566;2023-09-19T15:02:09;3.47;;;1.20;;
10491;SDS011;5293;51.464;-2.566;2023-09-19T15:04:35;2.50;;;1.00;;
10491;SDS011;5293;51.464;-2.566;2023-09-19T15:07:01;2.63;;;1.27;;
10491;SDS011;5293;51.464;-2.566;2023-09-19T15:09:27;4.77;;;1.30;;
10491;SDS011;5293;51.464;-2.566;2023-09-19T15:11:53;3.03;;;1.43;;
10491;SDS011;5293;51.464;-2.566;2023-09-19T15:14:22;1.37;;;1.07;;
10491;SDS011;5293;51.464;-2.566;2023-09-19T15:16:50;2.70;;;1.33;;
10491;SDS011;5293;51.464;-2.566;2023-09-19T15:19:15;2.73;;;1.20;;
10491;SDS011;5293;51.464;-2.566;2023-09-19T15:21:42;3.60;;;1.13;;
10491;SDS011;5293;51.464;-2.566;2023-09-19T15:24:08;3.77;;;1.23;;
10491;SDS011;5293;51.464;-2.566;2023-09-19T15:26:35;3.40;;;1.10;;
10491;SDS011;5293;51.464;-2.566;2023-09-19T15:29:07;4.60;;;1.20;;
10491;SDS011;5293;51.464;-2.566;2023-09-19T15:31:34;6.27;;;1.67;;
10491;SDS011;5293;51.464;-2.566;2023-09-19T15:34:03;6.17;;;1.27;;
10491;SDS011;5293;51.464;-2.566;2023-09-19T15:36:32;6.07;;;1.57;;
10491;SDS011;5293;51.464;-2.566;2023-09-19T15:39:05;9.30;;;2.40;;
10491;SDS011;5293;51.464;-2.566;2023-09-19T15:44:00;5.47;;;1.93;;
10491;SDS011;5293;51.464;-2.566;2023-09-19T15:46:29;7.50;;;2.53;;
10491;SDS011;5293;51.464;-2.566;2023-09-19T15:48:56;6.63;;;2.20;;
10491;SDS011;5293;51.464;-2.566;2023-09-19T15:51:23;7.70;;;2.67;;
10491;SDS011;5293;51.464;-2.566;2023-09-19T15:53:53;10.53;;;2.43;;
10491;SDS011;5293;51.464;-2.566;2023-09-19T15:56:21;10.20;;;1.83;;
10491;SDS011;5293;51.464;-2.566;2023-09-19T15:58:49;10.20;;;2.73;;
10491;SDS011;5293;51.464;-2.566;2023-09-19T16:01:15;8.70;;;2.50;;
10491;SDS011;5293;51.464;-2.566;2023-09-19T16:03:51;9.30;;;2.50;;
10491;SDS011;5293;51.464;-2.566;2023-09-19T16:06:19;8.63;;;2.60;;